Terminal Aerodrome Forecast
Issued by NWS

Home | Current Version | Previous Version | Text Only | Print | Product List | Glossary On
Versions: 1 2 3 4 5 6 7 8 9 10 11 12 13
000
FTUS43 KBIS 051724
TAFMOT
TAF
KMOT 051724Z 0518/0618 16019G24KT P6SM SCT090
     FM060100 13010KT P6SM FEW070
     FM061000 12009KT P6SM VCSH BKN025 OVC045
     FM061200 13011KT 5SM -SHRA BR OVC018=

USA.gov is the U.S. government's official web portal to all federal, state and local government web resources and services.